createdAt,value
2019-05-12T00:46:48.673Z,102682.84
2019-05-12T00:49:18.753Z,102687.94
2019-05-12T00:51:50.016Z,102684.58
2019-05-12T00:54:18.588Z,102685.97
2019-05-12T00:56:48.263Z,102689.30
2019-05-12T01:09:49.063Z,102696.88
2019-05-12T01:12:18.009Z,102696.49
2019-05-12T01:21:37.656Z,102708.31
2019-05-12T01:27:28.761Z,102713.81
2019-05-12T01:29:58.393Z,102721.75
2019-05-12T01:32:38.860Z,102720.00
2019-05-12T01:35:08.400Z,102723.34
2019-05-12T01:37:38.328Z,102730.92
2019-05-12T01:51:01.317Z,102739.38
2019-05-12T01:53:29.776Z,102741.06
2019-05-12T02:09:59.222Z,102771.34
2019-05-12T02:12:30.227Z,102774.70
2019-05-12T02:14:58.956Z,102776.77
2019-05-12T02:17:28.337Z,102669.74
2019-05-12T02:19:58.590Z,102787.56
2019-05-12T02:22:27.895Z,102787.09
2019-05-12T02:24:58.417Z,102793.37
2019-05-12T02:27:28.382Z,102792.02
2019-05-12T02:29:58.542Z,102795.42
2019-05-12T02:32:35.482Z,102793.32
2019-05-12T02:34:55.942Z,102800.77
2019-05-12T02:37:26.265Z,102799.64
2019-05-12T02:39:56.540Z,102810.58
2019-05-12T02:42:27.872Z,102815.70
2019-05-12T02:45:40.221Z,102816.92
2019-05-12T02:48:08.274Z,102819.55
2019-05-12T02:50:37.498Z,102832.37
2019-05-12T02:53:06.190Z,102834.85
2019-05-12T02:55:35.722Z,102839.14
2019-05-12T02:58:05.278Z,102844.70
2019-05-12T03:00:35.601Z,102850.28
2019-05-12T03:03:06.458Z,102845.14
2019-05-12T03:05:35.645Z,102847.69
2019-05-12T03:17:07.636Z,102858.25
2019-05-12T03:19:36.239Z,102861.20
2019-05-12T03:38:45.112Z,102890.55
2019-05-12T03:41:14.429Z,102894.41
2019-05-12T03:43:44.546Z,102896.91
2019-05-12T03:46:10.638Z,102898.69
2019-05-12T03:48:38.650Z,102904.13
2019-05-12T03:51:06.733Z,102913.00
2019-05-12T03:53:35.509Z,102913.46
2019-05-12T03:56:06.369Z,102914.30
2019-05-12T04:08:45.527Z,102941.80
2019-05-12T04:11:14.726Z,102955.73
2019-05-12T04:13:45.181Z,102949.39
2019-05-12T04:16:16.296Z,102958.25
2019-05-12T04:18:45.076Z,102962.05
2019-05-12T04:21:15.713Z,102967.55
2019-05-12T04:23:48.950Z,102967.97
2019-05-12T04:26:17.559Z,102980.19
2019-05-12T04:29:35.005Z,102981.05
2019-05-12T04:39:34.096Z,102985.69
2019-05-12T04:42:36.521Z,102991.99
2019-05-12T04:45:05.234Z,102991.16
2019-05-12T04:47:34.905Z,102994.16
2019-05-12T04:50:06.935Z,102999.19
2019-05-12T04:53:14.423Z,102997.95
2019-05-12T04:56:35.831Z,102768.73
2019-05-12T04:59:04.979Z,102806.73
2019-05-12T05:05:56.314Z,103004.69
2019-05-12T05:12:13.911Z,103007.13
2019-05-12T05:14:44.635Z,103011.39
2019-05-12T05:18:34.388Z,103018.55
2019-05-12T05:20:17.882Z,103020.63
2019-05-12T05:22:46.064Z,103018.09
2019-05-12T05:25:14.621Z,103021.89
2019-05-12T05:27:49.773Z,103032.46
2019-05-12T05:30:58.403Z,103037.05
2019-05-12T05:33:38.141Z,103041.27
2019-05-12T05:36:15.205Z,103041.22
2019-05-12T05:38:51.076Z,103048.30
2019-05-12T05:41:20.887Z,103055.05
2019-05-12T05:43:54.289Z,103052.10
2019-05-12T05:46:20.364Z,103064.36
2019-05-12T05:48:48.242Z,103071.56
2019-05-12T05:51:16.152Z,103066.00
2019-05-12T05:53:44.351Z,103065.97
2019-05-12T05:56:14.684Z,103071.41
2019-05-12T05:58:47.111Z,103077.37
2019-05-12T06:01:13.730Z,103071.80
2019-05-12T06:03:41.352Z,103076.48
2019-05-12T06:06:12.441Z,103068.38
2019-05-12T06:08:38.872Z,103073.04
2019-05-12T06:11:08.603Z,103080.43
2019-05-12T06:13:36.377Z,103085.89
2019-05-12T06:16:04.569Z,103098.94
2019-05-12T06:18:33.435Z,103094.13
2019-05-12T06:21:03.476Z,103094.98
2019-05-12T06:23:34.890Z,103099.81
2019-05-12T06:26:03.959Z,103103.61
2019-05-12T06:28:31.135Z,103110.89
2019-05-12T06:31:00.078Z,103112.41
2019-05-12T06:33:31.475Z,103113.10
2019-05-12T06:35:57.681Z,103115.05
2019-05-12T06:38:25.584Z,103105.61
2019-05-12T06:40:54.435Z,103110.21
2019-05-12T06:43:24.275Z,103115.45
2019-05-12T06:45:54.332Z,103114.42
2019-05-12T06:48:28.395Z,103124.65
2019-05-12T06:50:53.398Z,103126.61
2019-05-12T06:53:29.047Z,103137.05
2019-05-12T06:55:50.561Z,103139.04
2019-05-12T06:58:26.382Z,103140.25
2019-05-12T07:00:48.148Z,103148.66
2019-05-12T07:03:19.580Z,103142.09
2019-05-12T07:05:45.729Z,103144.45
2019-05-12T07:08:17.895Z,103155.80
2019-05-12T07:10:46.643Z,103156.43
2019-05-12T07:13:14.789Z,103156.07
2019-05-12T07:15:43.904Z,103150.38
2019-05-12T07:18:17.239Z,103160.64
2019-05-12T07:20:43.693Z,103166.89
2019-05-12T07:23:14.035Z,103175.72
2019-05-12T07:25:41.263Z,103173.95
2019-05-12T07:28:09.154Z,103175.36
2019-05-12T07:30:37.061Z,103173.98
2019-05-12T07:33:05.140Z,103181.22
2019-05-12T07:35:33.942Z,103181.19
2019-05-12T07:38:04.571Z,103181.48
2019-05-12T07:40:34.707Z,103183.70
2019-05-12T07:43:03.990Z,103178.94
2019-05-12T07:45:33.433Z,103168.84
2019-05-12T07:48:08.174Z,103167.57
2019-05-12T07:50:31.221Z,103173.59
2019-05-12T07:52:59.129Z,103164.80
2019-05-12T07:55:27.004Z,103173.34
2019-05-12T07:57:58.747Z,103181.14
2019-05-12T08:00:25.722Z,103185.63
2019-05-12T08:02:54.102Z,103189.16
2019-05-12T08:05:23.907Z,103194.44
2019-05-12T08:07:53.539Z,103196.92
2019-05-12T08:10:23.384Z,103199.51
2019-05-12T08:12:55.851Z,103201.63
2019-05-12T08:15:20.587Z,103202.03
2019-05-12T08:17:49.322Z,103197.08
2019-05-12T08:20:18.204Z,103203.30
2019-05-12T08:22:46.099Z,103194.06
2019-05-12T08:25:18.826Z,103193.70
2019-05-12T08:27:45.139Z,103187.39
2019-05-12T08:30:13.967Z,103193.91
2019-05-12T08:32:44.351Z,103194.06
2019-05-12T08:35:14.015Z,103202.39
2019-05-12T08:37:43.937Z,103201.78
2019-05-12T08:40:11.177Z,103200.24
2019-05-12T08:42:39.097Z,103199.19
2019-05-12T08:45:08.210Z,103192.78
2019-05-12T08:47:38.901Z,103200.83
2019-05-12T08:50:06.037Z,103202.68
2019-05-12T08:52:37.138Z,103203.84
2019-05-12T08:55:04.265Z,103204.86
2019-05-12T08:57:40.526Z,103212.58
2019-05-12T09:00:06.704Z,103205.13
2019-05-12T09:02:34.290Z,103210.47
2019-05-12T09:05:04.428Z,103209.22
2019-05-12T09:07:38.260Z,103215.47
2019-05-12T09:10:01.091Z,103216.59
2019-05-12T09:12:29.055Z,103211.98
2019-05-12T09:14:56.974Z,103228.73
2019-05-12T09:17:24.866Z,103228.50
2019-05-12T09:19:56.612Z,103224.09
2019-05-12T09:22:24.144Z,103232.71
2019-05-12T09:24:53.388Z,103231.29
2019-05-12T09:27:21.476Z,103230.56
2019-05-12T09:29:49.413Z,103226.48
2019-05-12T09:32:19.663Z,103235.58
2019-05-12T09:34:52.920Z,103230.97
2019-05-12T09:37:18.038Z,103233.55
2019-05-12T09:39:47.449Z,103239.83
2019-05-12T09:42:19.291Z,103242.70
2019-05-12T09:44:45.164Z,103249.94
2019-05-12T09:47:22.733Z,103252.47
2019-05-12T09:49:44.431Z,103255.50
2019-05-12T09:52:13.941Z,103262.80
2019-05-12T09:54:44.260Z,103261.49
2019-05-12T09:57:13.645Z,103265.30
2019-05-12T09:59:45.880Z,103269.95
2019-05-12T10:02:16.526Z,103275.36
2019-05-12T10:04:40.720Z,103281.50
2019-05-12T10:07:08.712Z,103283.11
2019-05-12T10:09:36.581Z,103273.81
2019-05-12T10:12:05.528Z,103266.79
2019-05-12T10:14:33.727Z,103277.82
2019-05-12T10:17:03.663Z,103277.91
2019-05-12T10:19:31.276Z,103283.50
2019-05-12T10:21:59.671Z,103286.16
2019-05-12T10:24:33.693Z,103288.78
2019-05-12T10:26:57.290Z,103288.67
2019-05-12T10:29:30.571Z,103296.54
2019-05-12T10:31:54.793Z,103289.45
2019-05-12T10:34:23.999Z,103293.75
2019-05-12T10:36:53.852Z,103292.90
2019-05-12T10:39:24.132Z,103298.04
2019-05-12T10:41:53.909Z,103297.30
2019-05-12T10:44:21.376Z,103302.02
2019-05-12T10:46:53.738Z,103306.45
2019-05-12T10:49:23.305Z,103313.91
2019-05-12T10:51:53.796Z,103300.69
2019-05-12T10:54:21.064Z,103301.39
2019-05-12T10:56:48.975Z,103302.02
2019-05-12T10:59:29.198Z,103306.95
2019-05-12T11:01:49.079Z,103312.28
2019-05-12T11:04:16.317Z,103306.56
2019-05-12T11:06:48.387Z,103309.38
2019-05-12T11:09:14.045Z,103314.31
2019-05-12T11:11:46.692Z,103314.47
2019-05-12T11:14:14.097Z,103310.66
2019-05-12T11:16:42.492Z,103312.56
2019-05-12T11:19:13.582Z,103307.05
2019-05-12T11:21:40.970Z,103303.27
2019-05-12T11:24:08.912Z,103305.05
2019-05-12T11:26:36.805Z,103305.59
2019-05-12T11:29:04.773Z,103323.64
2019-05-12T11:31:33.455Z,103325.52
2019-05-12T11:34:01.556Z,103325.84
2019-05-12T11:36:29.511Z,103331.48
2019-05-12T11:38:57.517Z,103329.28
2019-05-12T11:41:28.377Z,103316.10
2019-05-12T11:43:55.113Z,103315.27
2019-05-12T11:46:23.881Z,103317.16
2019-05-12T11:48:53.843Z,103316.81
2019-05-12T11:51:26.994Z,103321.45
2019-05-12T11:53:51.257Z,103327.13
2019-05-12T11:56:19.140Z,103315.53
2019-05-12T11:58:51.331Z,103311.69
2019-05-12T12:01:18.576Z,103314.67
2019-05-12T12:03:46.512Z,103315.81
2019-05-12T12:06:14.456Z,103310.72
2019-05-12T12:08:44.174Z,103312.78
2019-05-12T12:11:18.194Z,103310.95
2019-05-12T12:13:41.569Z,103311.14
2019-05-12T12:16:11.450Z,103315.41
2019-05-12T12:18:39.078Z,103315.67
2019-05-12T12:21:07.879Z,103322.92
2019-05-12T12:23:35.979Z,103316.61
2019-05-12T12:26:04.077Z,103316.33
2019-05-12T12:28:34.322Z,103316.25
2019-05-12T12:31:05.090Z,103317.25
2019-05-12T12:33:38.707Z,103304.44
2019-05-12T12:36:01.005Z,103300.55
2019-05-12T12:38:28.900Z,103315.55
2019-05-12T12:40:56.808Z,103319.80
2019-05-12T12:43:24.908Z,103326.97
2019-05-12T12:46:10.604Z,103317.87
2019-05-12T12:48:39.625Z,103329.38
2019-05-12T12:51:07.592Z,103330.63
2019-05-12T12:53:36.580Z,103320.09
2019-05-12T12:56:04.587Z,103324.41
2019-05-12T12:58:34.518Z,103331.86
2019-05-12T13:01:03.718Z,103334.06
2019-05-12T13:03:33.605Z,103340.84
2019-05-12T13:06:01.500Z,103340.17
2019-05-12T13:08:29.375Z,103329.52
2019-05-12T13:10:57.287Z,103333.81
2019-05-12T13:13:25.299Z,103335.10
2019-05-12T13:15:53.462Z,103346.53
2019-05-12T13:18:27.601Z,103336.73
2019-05-12T13:20:51.181Z,103340.95
2019-05-12T13:23:19.128Z,103340.30
2019-05-12T13:25:50.776Z,103341.06
2019-05-12T13:28:19.003Z,103353.25
2019-05-12T13:30:49.560Z,103352.83
2019-05-12T13:33:18.233Z,103354.39
2019-05-12T13:35:50.170Z,103343.99
2019-05-12T13:38:15.425Z,103351.54
2019-05-12T13:40:44.241Z,103344.84
2019-05-12T13:43:15.598Z,103357.34
2019-05-12T13:45:43.947Z,103359.10
2019-05-12T13:48:15.795Z,103367.70
2019-05-12T13:50:43.329Z,103366.88
2019-05-12T13:53:11.112Z,103371.19
2019-05-12T13:55:39.459Z,103376.86
2019-05-12T13:58:08.648Z,103373.84
2019-05-12T14:00:41.434Z,103364.70
2019-05-12T14:03:09.466Z,103372.63
2019-05-12T14:05:35.893Z,103377.35
2019-05-12T14:08:04.053Z,103375.09
2019-05-12T14:10:35.392Z,103371.61
2019-05-12T14:13:03.476Z,103379.85
2019-05-12T14:15:33.923Z,103383.80
2019-05-12T14:18:03.274Z,103389.69
2019-05-12T14:20:30.631Z,103386.00
2019-05-12T14:22:58.523Z,103386.08
2019-05-12T14:25:31.008Z,103397.98
2019-05-12T14:27:59.530Z,103396.30
2019-05-12T14:30:26.625Z,103390.39
2019-05-12T14:32:58.992Z,103391.54
2019-05-12T14:35:24.135Z,103398.47
2019-05-12T14:37:53.739Z,103394.88
2019-05-12T14:40:29.853Z,103391.66
2019-05-12T14:42:51.296Z,103395.16
2019-05-12T14:45:24.235Z,103395.00
2019-05-12T14:47:48.871Z,103402.04
2019-05-12T14:50:16.851Z,103398.38
2019-05-12T14:52:44.728Z,103399.23
2019-05-12T14:55:13.934Z,103394.97
2019-05-12T14:57:43.555Z,103400.71
2019-05-12T15:00:17.373Z,103396.98
2019-05-12T15:02:43.691Z,103397.97
2019-05-12T15:05:14.138Z,103399.41
2019-05-12T15:07:50.331Z,103402.52
2019-05-12T15:10:11.226Z,103401.27
2019-05-12T15:12:39.132Z,103414.91
2019-05-12T15:15:09.068Z,103411.73
2019-05-12T15:17:37.144Z,103409.31
2019-05-12T15:20:08.796Z,103418.58
2019-05-12T15:22:34.817Z,103417.31
2019-05-12T15:25:05.314Z,103418.89
2019-05-12T15:27:44.106Z,103418.12
2019-05-12T15:30:04.042Z,103414.70
2019-05-12T15:32:34.013Z,103416.41
2019-05-12T15:35:01.398Z,103415.45
2019-05-12T15:37:35.003Z,103429.83
2019-05-12T15:39:58.919Z,103425.77
2019-05-12T15:42:26.911Z,103425.44
2019-05-12T15:44:54.866Z,103425.86
2019-05-12T15:47:27.271Z,103423.77
2019-05-12T15:49:53.186Z,103429.17
2019-05-12T15:52:24.592Z,103438.88
2019-05-12T15:54:54.017Z,103443.80
2019-05-12T15:57:24.255Z,103438.37
2019-05-12T15:59:53.977Z,103448.58
2019-05-12T16:02:23.286Z,103448.94
2019-05-12T16:04:50.912Z,103451.72
2019-05-12T16:07:18.934Z,103452.14
2019-05-12T16:09:46.864Z,103408.54
2019-05-12T16:12:19.885Z,103446.71
2019-05-12T16:14:44.987Z,103447.14
2019-05-12T16:17:16.811Z,103456.84
2019-05-12T16:19:43.776Z,103452.53
2019-05-12T16:22:13.797Z,103453.79
2019-05-12T16:24:43.489Z,103456.86
2019-05-12T16:27:11.226Z,103460.78
2019-05-12T16:29:44.340Z,103460.86
2019-05-12T16:32:26.041Z,103461.80
2019-05-12T16:34:44.933Z,103463.92
2019-05-12T16:37:09.621Z,103455.22
2019-05-12T16:39:44.229Z,103466.86
2019-05-12T16:42:10.445Z,103471.72
2019-05-12T16:44:36.900Z,103472.23
2019-05-12T16:47:04.880Z,103475.78
2019-05-12T16:49:33.575Z,103474.41
2019-05-12T16:52:03.649Z,103466.60
2019-05-12T16:54:33.553Z,103468.96
2019-05-12T16:57:06.424Z,103477.48
2019-05-12T16:59:31.161Z,103480.23
2019-05-12T17:02:04.291Z,103489.47
2019-05-12T17:04:28.761Z,103490.34
2019-05-12T17:06:56.663Z,103487.98
2019-05-12T17:09:24.577Z,103496.69
2019-05-12T17:11:54.998Z,103485.80
2019-05-12T17:14:23.518Z,103494.81
2019-05-12T17:16:51.689Z,103498.94
2019-05-12T17:19:19.582Z,103501.03
2019-05-12T17:21:49.318Z,103494.59
2019-05-12T17:24:17.189Z,103506.72
2019-05-12T17:26:45.107Z,103510.09
2019-05-12T17:29:13.691Z,103511.17
2019-05-12T17:31:44.243Z,103511.97
2019-05-12T17:34:11.534Z,103513.73
2019-05-12T17:36:39.636Z,103515.55
2019-05-12T17:39:07.968Z,103532.47
2019-05-12T17:41:40.404Z,103522.00
2019-05-12T17:44:06.005Z,103523.09
2019-05-12T17:46:38.003Z,103524.01
2019-05-12T17:49:04.097Z,103526.44
2019-05-12T17:51:32.104Z,103524.87
2019-05-12T17:54:00.000Z,103527.63
2019-05-12T17:56:34.215Z,103538.08
2019-05-12T17:58:57.537Z,103536.88
2019-05-12T18:01:31.262Z,103540.78
2019-05-12T18:03:55.256Z,103536.97
2019-05-12T18:06:26.747Z,103534.94
2019-05-12T18:08:53.460Z,103544.34
2019-05-12T18:11:23.931Z,103540.19
2019-05-12T18:14:01.483Z,103544.12
2019-05-12T18:16:22.699Z,103544.50
2019-05-12T18:18:50.548Z,103550.17
2019-05-12T18:21:21.828Z,103555.54
2019-05-12T18:23:48.154Z,103552.90
2019-05-12T18:26:16.594Z,103553.81
2019-05-12T18:28:44.652Z,103558.06
2019-05-12T18:31:13.829Z,103554.64
2019-05-12T18:33:50.857Z,103565.16
2019-05-12T18:36:14.200Z,103563.68
2019-05-12T18:38:41.368Z,103567.16
2019-05-12T18:41:09.289Z,103568.13
2019-05-12T18:43:37.311Z,103571.09
2019-05-12T18:46:08.910Z,103573.09
2019-05-12T18:48:34.984Z,103571.35
2019-05-12T18:51:11.582Z,103578.30
2019-05-12T18:53:34.929Z,103571.48
2019-05-12T18:56:04.630Z,103576.42
2019-05-12T18:58:33.331Z,103576.67
2019-05-12T19:01:03.455Z,103580.92
2019-05-12T19:03:44.763Z,103584.49
2019-05-12T19:06:03.321Z,103588.51
2019-05-12T19:08:30.789Z,103599.61
2019-05-12T19:10:58.737Z,103600.05
2019-05-12T19:13:26.734Z,103596.66
2019-05-12T19:16:02.431Z,103607.88
2019-05-12T19:18:32.102Z,103600.34
2019-05-12T19:20:54.284Z,103608.36
2019-05-12T19:23:26.854Z,103610.27
2019-05-12T19:25:54.197Z,103615.62
2019-05-12T19:28:23.681Z,103617.36
2019-05-12T19:30:51.299Z,103615.50
2019-05-12T19:33:19.193Z,103621.89
2019-05-12T19:35:50.475Z,103617.81
2019-05-12T19:38:16.718Z,103625.45
2019-05-12T19:40:47.312Z,103625.57
2019-05-12T19:43:14.409Z,103628.12
2019-05-12T19:45:43.501Z,103626.99
2019-05-12T19:48:23.325Z,103627.20
2019-05-12T19:50:44.452Z,103633.74
2019-05-12T19:53:13.218Z,103633.40
2019-05-12T19:55:40.700Z,103633.78
2019-05-12T19:58:12.684Z,103638.06
2019-05-12T20:00:38.249Z,103644.14
2019-05-12T20:03:08.582Z,103644.53
2019-05-12T20:05:35.780Z,103644.16
2019-05-12T20:08:04.185Z,103646.30
2019-05-12T20:14:31.385Z,103641.77
2019-05-12T20:17:48.833Z,103649.80
2019-05-12T20:52:55.875Z,103675.88
2019-05-12T20:55:41.206Z,103684.11
2019-05-12T20:58:06.337Z,103677.33
2019-05-12T21:00:38.988Z,103682.38
2019-05-12T21:03:08.901Z,103688.77
2019-05-12T21:05:38.201Z,103690.50
2019-05-12T21:11:47.774Z,103691.41
2019-05-12T21:14:25.518Z,103692.23
2019-05-12T21:17:03.057Z,103693.52
2019-05-12T21:45:43.494Z,103701.99
2019-05-12T21:58:10.094Z,103704.50
2019-05-12T22:00:34.802Z,103703.23
2019-05-12T22:03:08.223Z,103710.38
2019-05-12T22:05:49.306Z,103701.42
2019-05-12T22:08:06.548Z,103706.97
2019-05-12T22:10:34.762Z,103713.27
2019-05-12T22:13:06.846Z,103714.13
2019-05-12T22:15:34.704Z,103709.05
2019-05-12T23:42:27.036Z,103771.22
